createdAt,value
2019-04-01T07:37:22.000Z,40.6
2019-04-01T07:37:45.000Z,40.4
2019-04-01T07:38:09.000Z,40.4
2019-04-01T07:38:32.000Z,40.4
2019-04-01T07:38:56.000Z,40.4
2019-04-01T07:42:27.000Z,41.0
2019-04-01T07:42:47.000Z,40.8
2019-04-01T07:55:03.000Z,41.7
2019-04-01T07:55:23.000Z,41.7
2019-04-01T09:45:27.000Z,42.8
2019-04-01T10:19:10.000Z,36.7
2019-04-01T11:10:51.000Z,28.4
2019-04-01T11:11:48.000Z,29.2
2019-04-01T11:12:17.000Z,29.3
2019-04-01T11:12:46.000Z,29.3
2019-04-01T11:13:14.000Z,29.2
2019-04-01T11:13:42.000Z,29.1
2019-04-01T11:14:15.000Z,29.0
2019-04-01T11:14:44.000Z,28.9
2019-04-01T11:15:12.000Z,28.8
2019-04-01T11:15:41.000Z,28.7
2019-04-01T11:16:09.000Z,28.6
2019-04-01T11:16:37.000Z,28.5
2019-04-01T11:17:07.000Z,28.5
2019-04-01T11:17:36.000Z,28.4
2019-04-01T11:18:04.000Z,28.0
2019-04-01T11:18:33.000Z,28.2
2019-04-01T11:19:01.000Z,28.6
2019-04-01T11:19:31.000Z,28.9
2019-04-01T11:20:00.000Z,29.2
2019-04-01T11:20:29.000Z,29.2
2019-04-01T11:20:57.000Z,29.3
2019-04-01T11:21:26.000Z,29.3
2019-04-01T11:21:54.000Z,29.4
2019-04-01T11:22:24.000Z,29.5
2019-04-01T11:22:53.000Z,29.6
2019-04-01T11:23:26.000Z,29.8
2019-04-01T11:23:54.000Z,29.9
2019-04-01T11:27:59.000Z,29.6
2019-04-01T11:28:55.000Z,29.4
2019-04-01T11:29:57.000Z,29.2
2019-04-01T11:31:57.000Z,29.0
2019-04-01T11:32:29.000Z,29.0
2019-04-01T11:33:44.000Z,28.9
2019-04-01T11:35:07.000Z,28.9
2019-04-01T11:35:38.000Z,28.9
2019-04-01T11:36:06.000Z,28.9
2019-04-01T11:36:35.000Z,28.9
2019-04-01T11:37:31.000Z,28.9
2019-04-01T11:38:56.000Z,28.7
2019-04-01T11:39:26.000Z,28.7
2019-04-01T11:39:57.000Z,28.6
2019-04-01T11:40:35.000Z,28.6
2019-04-01T11:41:50.000Z,28.5
2019-04-01T11:42:44.000Z,28.5
2019-04-01T11:43:14.000Z,28.5
2019-04-01T11:43:44.000Z,28.5
2019-04-01T11:44:14.000Z,28.5
2019-04-01T11:44:43.000Z,28.4
2019-04-01T11:45:13.000Z,28.4
2019-04-01T11:45:44.000Z,28.4
2019-04-01T11:46:14.000Z,28.4
2019-04-01T11:46:44.000Z,28.5
2019-04-01T11:48:59.000Z,29.1
2019-04-01T11:49:49.000Z,29.4
2019-04-01T11:50:17.000Z,29.5
2019-04-01T11:50:46.000Z,29.6
2019-04-01T11:51:14.000Z,29.7
2019-04-01T11:52:01.000Z,29.6
2019-04-01T11:52:30.000Z,29.5
2019-04-01T11:52:59.000Z,29.3
2019-04-01T11:53:28.000Z,29.1
2019-04-01T11:53:58.000Z,29.0
2019-04-01T11:54:59.000Z,28.7
2019-04-01T11:55:31.000Z,28.6
2019-04-01T11:56:02.000Z,28.5
2019-04-01T11:56:32.000Z,28.4
2019-04-01T11:57:02.000Z,28.4
2019-04-01T11:57:32.000Z,28.3
2019-04-01T11:58:01.000Z,28.2
2019-04-01T11:58:30.000Z,28.1
2019-04-01T11:58:59.000Z,28.0
2019-04-01T11:59:29.000Z,28.0
2019-04-01T11:59:59.000Z,27.9
2019-04-01T12:01:14.000Z,27.8
2019-04-01T12:02:08.000Z,27.6
2019-04-01T12:02:37.000Z,27.6
2019-04-01T12:03:07.000Z,27.5
2019-04-01T12:04:13.000Z,27.4
2019-04-01T12:04:43.000Z,27.3
2019-04-01T12:05:13.000Z,27.3
2019-04-01T12:05:43.000Z,27.2
2019-04-01T12:06:13.000Z,27.2
2019-04-01T12:07:57.000Z,27.1
2019-04-01T12:08:51.000Z,27.0
2019-04-01T12:09:20.000Z,26.9
2019-04-01T12:09:48.000Z,26.9
2019-04-01T12:11:31.000Z,26.8
2019-04-01T12:12:24.000Z,26.8
2019-04-01T12:12:52.000Z,26.8
2019-04-01T12:13:21.000Z,26.8
2019-04-01T12:13:49.000Z,26.8
2019-04-01T12:15:33.000Z,27.0
2019-04-01T12:18:35.000Z,27.8
2019-04-01T12:19:31.000Z,28.0
2019-04-01T12:20:01.000Z,28.1
2019-04-01T12:20:30.000Z,28.2
2019-04-01T12:20:59.000Z,28.3
2019-04-01T12:21:29.000Z,28.4
2019-04-01T12:22:02.000Z,28.5
2019-04-01T12:22:32.000Z,28.5
2019-04-01T12:23:06.000Z,28.5
2019-04-01T12:24:01.000Z,28.6
2019-04-01T12:24:30.000Z,28.5
2019-04-01T12:25:01.000Z,28.4
2019-04-01T12:25:31.000Z,28.3
2019-04-01T12:26:00.000Z,28.1
2019-04-01T12:26:39.000Z,27.9
2019-04-01T12:27:08.000Z,27.8
2019-04-01T12:27:37.000Z,27.6
2019-04-01T12:28:06.000Z,27.5
2019-04-01T12:28:35.000Z,27.4
2019-04-01T12:29:04.000Z,27.2
2019-04-01T12:30:19.000Z,27.0
2019-04-01T12:31:13.000Z,26.8
2019-04-01T12:31:43.000Z,26.7
2019-04-01T12:32:12.000Z,26.7
2019-04-01T12:32:41.000Z,26.6
2019-04-01T12:33:10.000Z,26.5
2019-04-01T12:33:39.000Z,26.4
2019-04-01T12:34:08.000Z,26.4
2019-04-01T12:34:38.000Z,26.3
2019-04-01T12:35:07.000Z,26.3
2019-04-01T12:35:41.000Z,26.2
2019-04-01T12:36:10.000Z,26.2
2019-04-01T12:36:40.000Z,26.2
2019-04-01T12:37:36.000Z,26.1
2019-04-01T12:38:07.000Z,26.0
2019-04-01T12:39:31.000Z,25.9
2019-04-01T12:40:46.000Z,25.8
2019-04-01T12:41:39.000Z,25.6
2019-04-01T12:42:08.000Z,25.6
2019-04-01T12:42:38.000Z,25.5
2019-04-01T12:43:07.000Z,25.4
2019-04-01T12:44:03.000Z,25.3
2019-04-01T12:44:32.000Z,25.2
2019-04-01T12:45:02.000Z,25.2
2019-04-01T12:45:31.000Z,25.1
2019-04-01T12:46:01.000Z,25.1
2019-04-01T12:50:51.000Z,24.3
2019-04-01T12:51:42.000Z,24.2
2019-04-01T12:52:10.000Z,24.1
2019-04-01T12:52:39.000Z,24.1
2019-04-01T12:53:09.000Z,24.0
2019-04-01T12:53:37.000Z,24.0
2019-04-01T12:54:07.000Z,23.9
2019-04-01T12:54:36.000Z,23.9
2019-04-01T12:55:32.000Z,23.9
2019-04-01T12:56:47.000Z,24.1
2019-04-01T12:57:42.000Z,24.2
2019-04-01T12:58:12.000Z,24.2
2019-04-01T12:58:46.000Z,24.2
2019-04-01T12:59:16.000Z,24.2
2019-04-01T12:59:45.000Z,24.1
2019-04-01T13:00:14.000Z,24.1
2019-04-01T13:00:43.000Z,24.1
2019-04-01T13:01:12.000Z,24.0
2019-04-01T13:01:41.000Z,24.0
2019-04-01T13:02:11.000Z,23.9
2019-04-01T13:02:41.000Z,23.9
2019-04-01T13:03:10.000Z,23.8
2019-04-01T13:03:40.000Z,23.7
2019-04-01T13:04:09.000Z,23.7
2019-04-01T13:04:38.000Z,23.6
2019-04-01T13:05:13.000Z,23.5
2019-04-01T13:05:44.000Z,23.4
2019-04-01T13:06:14.000Z,23.4
2019-04-01T13:06:43.000Z,23.3
2019-04-01T13:07:12.000Z,23.2
2019-04-01T13:07:41.000Z,23.2
2019-04-01T13:08:15.000Z,23.1
2019-04-01T13:08:45.000Z,23.1
2019-04-01T13:09:14.000Z,23.0
2019-04-01T13:09:43.000Z,23.0
2019-04-01T13:10:12.000Z,22.9
2019-04-01T13:10:41.000Z,22.9
2019-04-01T13:11:11.000Z,22.8
2019-04-01T13:11:40.000Z,22.8
2019-04-01T13:12:09.000Z,22.7
2019-04-01T13:12:38.000Z,22.6
2019-04-01T13:13:07.000Z,22.6
2019-04-01T13:13:36.000Z,22.6
2019-04-01T13:14:05.000Z,22.5
2019-04-01T13:14:34.000Z,22.5
2019-04-01T13:15:04.000Z,22.5
2019-04-01T13:16:19.000Z,22.4
2019-04-01T13:17:13.000Z,22.3
2019-04-01T13:17:42.000Z,22.2
2019-04-01T13:18:11.000Z,22.2
2019-04-01T13:18:39.000Z,22.1
2019-04-01T13:19:08.000Z,22.1
2019-04-01T13:19:37.000Z,22.0
2019-04-01T13:20:06.000Z,22.0
2019-04-01T13:20:34.000Z,21.9
2019-04-01T13:21:03.000Z,21.9
2019-04-01T13:21:32.000Z,21.9
2019-04-01T13:22:01.000Z,21.8
2019-04-01T13:22:30.000Z,21.8
2019-04-01T13:22:59.000Z,21.8
2019-04-01T13:23:29.000Z,21.8
2019-04-01T13:23:57.000Z,21.7
2019-04-01T13:24:25.000Z,21.7
2019-04-01T13:24:53.000Z,21.7
2019-04-01T13:25:26.000Z,21.7
2019-04-01T13:25:55.000Z,21.7
2019-04-01T13:26:23.000Z,21.7
2019-04-01T13:26:52.000Z,21.6
2019-04-01T13:27:21.000Z,21.6
2019-04-01T13:27:49.000Z,21.6
2019-04-01T13:28:18.000Z,21.5
2019-04-01T13:28:47.000Z,21.5
2019-04-01T13:29:16.000Z,21.4
2019-04-01T13:29:45.000Z,21.4
2019-04-01T13:30:14.000Z,21.3
2019-04-01T13:30:47.000Z,21.3
2019-04-01T13:31:16.000Z,21.3
2019-04-01T13:31:43.000Z,21.4
2019-04-01T13:32:12.000Z,21.4
2019-04-01T13:32:41.000Z,21.4
2019-04-01T13:33:09.000Z,21.5
2019-04-01T13:33:37.000Z,21.5
2019-04-01T13:35:21.000Z,21.8
2019-04-01T13:36:13.000Z,21.9
2019-04-01T13:36:42.000Z,22.0
2019-04-01T13:37:10.000Z,22.0
2019-04-01T13:37:39.000Z,22.0
2019-04-01T13:38:07.000Z,22.0
2019-04-01T13:38:36.000Z,21.9
2019-04-01T13:39:04.000Z,21.9
2019-04-01T13:39:35.000Z,21.8
2019-04-01T13:40:07.000Z,21.7
2019-04-01T13:40:36.000Z,21.6
2019-04-01T13:41:05.000Z,21.6
2019-04-01T13:41:37.000Z,21.5
2019-04-01T13:42:06.000Z,21.5
2019-04-01T13:42:35.000Z,21.4
2019-04-01T13:43:04.000Z,21.4
2019-04-01T13:44:19.000Z,21.3
2019-04-01T13:45:12.000Z,21.2
2019-04-01T13:45:42.000Z,21.2
2019-04-01T13:46:11.000Z,21.1
2019-04-01T13:46:40.000Z,21.1
2019-04-01T13:47:12.000Z,21.0
2019-04-01T13:47:40.000Z,21.0
2019-04-01T13:48:11.000Z,20.9
2019-04-01T13:48:40.000Z,20.8
2019-04-01T13:49:26.000Z,20.7
2019-04-01T13:49:55.000Z,20.7
2019-04-01T13:50:24.000Z,20.7
2019-04-01T13:50:52.000Z,20.7
2019-04-01T13:51:22.000Z,20.7
2019-04-01T13:51:51.000Z,20.6
2019-04-01T13:52:24.000Z,20.6
2019-04-01T13:53:20.000Z,20.5
2019-04-01T13:53:48.000Z,20.5
2019-04-01T13:54:32.000Z,20.5
2019-04-01T13:55:02.000Z,20.4
2019-04-01T13:55:30.000Z,20.4
2019-04-01T13:55:58.000Z,20.4
2019-04-01T13:56:34.000Z,20.4
2019-04-01T13:57:04.000Z,20.3
2019-04-01T13:57:34.000Z,20.3
2019-04-01T13:58:02.000Z,20.3
2019-04-01T13:58:31.000Z,20.2
2019-04-01T13:59:00.000Z,20.2
2019-04-01T13:59:34.000Z,20.2
2019-04-01T14:00:12.000Z,20.2
2019-04-01T14:00:48.000Z,20.1
2019-04-01T14:01:18.000Z,20.1
2019-04-01T14:01:47.000Z,20.1
2019-04-01T14:02:18.000Z,20.1
2019-04-01T14:02:52.000Z,20.1
2019-04-01T14:03:20.000Z,20.0
2019-04-01T14:03:50.000Z,20.0
2019-04-01T14:04:19.000Z,19.9
2019-04-01T14:04:48.000Z,19.9
2019-04-01T14:05:16.000Z,19.9
2019-04-01T14:05:46.000Z,19.9
2019-04-01T14:06:15.000Z,19.9
2019-04-01T14:06:44.000Z,19.9
2019-04-01T14:07:12.000Z,19.9
2019-04-01T14:08:14.000Z,19.8
2019-04-01T14:08:43.000Z,19.8
2019-04-01T14:09:12.000Z,19.8
2019-04-01T14:09:40.000Z,19.8
2019-04-01T14:10:16.000Z,19.9
2019-04-01T14:10:46.000Z,20.1
2019-04-01T14:15:35.000Z,21.4
2019-04-01T14:20:50.000Z,21.5
2019-04-01T14:21:44.000Z,21.3
2019-04-01T14:22:12.000Z,21.2
2019-04-01T14:22:40.000Z,21.1
2019-04-01T14:23:10.000Z,20.9
2019-04-01T14:23:39.000Z,20.8
2019-04-01T14:24:08.000Z,20.6
2019-04-01T14:24:36.000Z,20.4
2019-04-01T14:25:06.000Z,20.3
2019-04-01T14:25:35.000Z,20.2
2019-04-01T14:26:04.000Z,20.1
2019-04-01T14:26:32.000Z,19.9
2019-04-01T14:27:02.000Z,19.8
2019-04-01T14:27:31.000Z,19.7
2019-04-01T14:28:00.000Z,19.6
2019-04-01T14:28:30.000Z,19.5
2019-04-01T14:28:59.000Z,19.5
2019-04-01T14:29:28.000Z,19.7
2019-04-01T14:29:56.000Z,19.9
2019-04-01T14:30:27.000Z,19.9
2019-04-01T14:30:56.000Z,19.9
2019-04-01T14:31:27.000Z,19.8
2019-04-01T14:31:56.000Z,19.7
2019-04-01T14:32:24.000Z,19.6
2019-04-01T14:32:54.000Z,19.5
2019-04-01T14:33:24.000Z,19.5
2019-04-01T14:33:56.000Z,19.4
2019-04-01T14:34:27.000Z,19.3
2019-04-01T14:34:56.000Z,19.3
2019-04-01T14:35:24.000Z,19.3
2019-04-01T14:35:56.000Z,19.2
2019-04-01T14:36:26.000Z,19.2
2019-04-01T14:36:59.000Z,19.5
2019-04-01T14:37:31.000Z,19.8
2019-04-01T14:39:20.000Z,20.8
2019-04-01T14:39:56.000Z,21.0
2019-04-01T14:41:04.000Z,21.1
2019-04-01T14:41:59.000Z,21.1
2019-04-01T14:42:28.000Z,21.0
2019-04-01T14:43:00.000Z,21.2
2019-04-01T14:43:31.000Z,21.3
2019-04-01T14:44:28.000Z,21.6
2019-04-01T14:44:56.000Z,21.7
2019-04-01T14:45:27.000Z,21.8
2019-04-01T14:45:56.000Z,21.8
2019-04-01T14:46:52.000Z,21.4
2019-04-01T14:47:24.000Z,21.2
2019-04-01T14:47:52.000Z,21.1
2019-04-01T14:48:22.000Z,21.1
2019-04-01T14:48:51.000Z,21.0
2019-04-01T14:49:24.000Z,21.1
2019-04-01T14:49:54.000Z,21.1
2019-04-01T14:51:08.000Z,21.1
2019-04-01T14:52:03.000Z,21.2
2019-04-01T14:52:32.000Z,21.3
2019-04-01T14:53:02.000Z,21.3
2019-04-01T14:53:30.000Z,21.4
2019-04-01T14:53:58.000Z,21.4
2019-04-01T14:54:26.000Z,21.5
2019-04-01T14:54:54.000Z,21.5
2019-04-01T14:55:23.000Z,21.5
2019-04-01T14:55:51.000Z,21.5
2019-04-01T14:56:20.000Z,21.5
2019-04-01T14:56:48.000Z,21.4
2019-04-01T14:57:18.000Z,21.3
2019-04-01T14:57:47.000Z,21.2
2019-04-01T14:58:16.000Z,21.1
2019-04-01T14:58:44.000Z,20.9
2019-04-01T15:00:28.000Z,20.4
2019-04-01T15:01:22.000Z,20.2
2019-04-01T15:01:51.000Z,20.1
2019-04-01T15:03:06.000Z,20.4
2019-04-01T15:04:47.000Z,20.6
2019-04-01T15:05:40.000Z,20.2
2019-04-01T15:06:08.000Z,20.0
2019-04-01T15:06:36.000Z,19.9
2019-04-01T15:07:06.000Z,19.7
2019-04-01T15:07:39.000Z,19.6
2019-04-01T15:08:07.000Z,19.5
2019-04-01T15:08:40.000Z,19.4
2019-04-01T15:09:08.000Z,19.4
2019-04-01T15:09:38.000Z,19.3
2019-04-01T15:10:07.000Z,19.2
2019-04-01T15:10:36.000Z,19.2
2019-04-01T15:11:04.000Z,19.1
2019-04-01T15:11:32.000Z,19.1
2019-04-01T15:12:02.000Z,19.0
2019-04-01T15:12:31.000Z,19.0
2019-04-01T15:13:00.000Z,18.9
2019-04-01T15:13:30.000Z,18.9
2019-04-01T15:14:00.000Z,18.9
2019-04-01T15:14:55.000Z,18.8
2019-04-01T15:16:10.000Z,18.7
2019-04-01T15:17:08.000Z,18.8
2019-04-01T15:17:38.000Z,19.0
2019-04-01T15:18:08.000Z,19.3
2019-04-01T15:18:36.000Z,19.5
2019-04-01T15:19:18.000Z,19.9
2019-04-01T15:19:48.000Z,20.2
2019-04-01T15:20:16.000Z,20.3
2019-04-01T15:21:12.000Z,20.4
2019-04-01T15:21:43.000Z,20.4
2019-04-01T15:22:12.000Z,20.4
2019-04-01T15:22:44.000Z,20.4
2019-04-01T15:23:15.000Z,20.5
2019-04-01T15:23:48.000Z,20.7
2019-04-01T15:24:19.000Z,21.0
2019-04-01T15:24:48.000Z,21.2
2019-04-01T15:25:20.000Z,21.5
2019-04-01T15:25:54.000Z,21.7
2019-04-01T15:26:24.000Z,21.9
2019-04-01T15:26:55.000Z,22.1
2019-04-01T15:27:24.000Z,22.3
2019-04-01T15:27:54.000Z,22.5
2019-04-01T15:28:23.000Z,22.6
2019-04-01T15:28:52.000Z,22.8
2019-04-01T15:29:20.000Z,23.0
2019-04-01T15:29:50.000Z,23.1
2019-04-01T15:30:19.000Z,23.2
2019-04-01T15:30:48.000Z,23.4
2019-04-01T15:31:16.000Z,23.5
2019-04-01T15:31:46.000Z,23.6
2019-04-01T15:32:15.000Z,23.8
2019-04-01T15:32:44.000Z,23.9
2019-04-01T15:33:12.000Z,24.0
2019-04-01T15:33:42.000Z,24.1
2019-04-01T15:34:11.000Z,24.3
2019-04-01T15:35:55.000Z,24.6
2019-04-01T15:36:47.000Z,24.7
2019-04-01T15:37:15.000Z,24.8
2019-04-01T15:37:44.000Z,24.9
2019-04-01T15:38:14.000Z,25.0
2019-04-01T15:38:43.000Z,25.0
2019-04-01T15:39:12.000Z,25.0
2019-04-01T15:39:40.000Z,24.8
2019-04-01T15:40:10.000Z,24.4
2019-04-01T15:40:39.000Z,24.0
2019-04-01T15:41:08.000Z,23.7
2019-04-01T15:41:36.000Z,23.4
2019-04-01T15:42:06.000Z,23.1
2019-04-01T15:42:35.000Z,22.8
2019-04-01T15:43:04.000Z,22.6
2019-04-01T15:43:32.000Z,22.4
2019-04-01T15:44:00.000Z,22.2
2019-04-01T15:44:30.000Z,22.0
2019-04-01T15:44:58.000Z,21.8
2019-04-01T15:45:27.000Z,21.6
2019-04-01T15:45:56.000Z,21.5
2019-04-01T15:46:27.000Z,21.3
2019-04-01T15:46:56.000Z,21.2
2019-04-01T15:47:30.000Z,21.1
2019-04-01T15:47:59.000Z,21.0
2019-04-01T15:48:28.000Z,20.9
2019-04-01T15:48:58.000Z,20.9
2019-04-01T15:49:31.000Z,20.8
2019-04-01T15:50:00.000Z,20.7
2019-04-01T15:50:30.000Z,20.7
2019-04-01T15:50:59.000Z,20.7
2019-04-01T15:51:28.000Z,20.6
2019-04-01T15:51:56.000Z,20.6
2019-04-01T15:52:26.000Z,20.6
2019-04-01T15:53:26.000Z,20.7
2019-04-01T15:53:56.000Z,20.7
2019-04-01T15:54:24.000Z,20.8
2019-04-01T15:54:54.000Z,20.9
2019-04-01T15:55:23.000Z,21.0
2019-04-01T15:55:52.000Z,21.1
2019-04-01T15:56:20.000Z,21.3
2019-04-01T15:56:50.000Z,21.4
2019-04-01T15:57:19.000Z,21.5
2019-04-01T15:59:03.000Z,22.0
2019-04-01T15:59:55.000Z,22.2
2019-04-01T16:00:24.000Z,22.3
2019-04-01T16:00:52.000Z,22.4
2019-04-01T16:01:22.000Z,22.5
2019-04-01T16:01:51.000Z,22.5
2019-04-01T16:03:35.000Z,22.4
2019-04-01T16:04:28.000Z,22.3
2019-04-01T16:04:58.000Z,22.2
2019-04-01T16:05:26.000Z,22.1
2019-04-01T16:05:55.000Z,22.0
2019-04-01T16:06:23.000Z,21.9
2019-04-01T16:06:52.000Z,21.8
2019-04-01T16:07:20.000Z,21.7
2019-04-01T16:07:48.000Z,21.6
2019-04-01T16:08:16.000Z,21.5
2019-04-01T16:08:46.000Z,21.4
2019-04-01T16:09:14.000Z,21.3
2019-04-01T16:09:44.000Z,21.3
2019-04-01T16:10:12.000Z,21.2
2019-04-01T16:10:42.000Z,21.2
2019-04-01T16:11:11.000Z,21.2
2019-04-01T16:11:39.000Z,21.2
2019-04-01T16:12:08.000Z,21.2
2019-04-01T16:12:36.000Z,21.2
2019-04-01T16:13:06.000Z,21.2
2019-04-01T16:13:35.000Z,21.2
2019-04-01T16:14:03.000Z,21.1
2019-04-01T16:14:32.000Z,21.2
2019-04-01T16:15:00.000Z,21.2
2019-04-01T16:15:30.000Z,21.2
2019-04-01T16:15:59.000Z,21.3
2019-04-01T16:16:28.000Z,21.4
2019-04-01T16:16:56.000Z,21.4
2019-04-01T16:17:26.000Z,21.5
2019-04-01T16:17:54.000Z,21.5
2019-04-01T16:18:23.000Z,21.6
2019-04-01T16:18:52.000Z,21.6
2019-04-01T16:19:20.000Z,21.7
2019-04-01T16:19:50.000Z,21.7
2019-04-01T16:20:18.000Z,21.8
2019-04-01T16:20:47.000Z,21.9
2019-04-01T16:21:16.000Z,22.0
2019-04-01T16:21:44.000Z,22.1
2019-04-01T16:22:14.000Z,22.2
2019-04-01T16:22:42.000Z,22.4
2019-04-01T16:23:11.000Z,22.5
2019-04-01T16:23:39.000Z,22.7
2019-04-01T16:24:08.000Z,22.8
2019-04-01T16:24:36.000Z,23.0
2019-04-01T16:25:04.000Z,23.1
2019-04-01T16:29:56.000Z,24.0
2019-04-01T16:30:48.000Z,23.9
2019-04-01T16:31:18.000Z,23.9
2019-04-01T16:31:47.000Z,23.8
2019-04-01T16:32:19.000Z,23.7
2019-04-01T16:32:50.000Z,23.6
2019-04-01T16:34:04.000Z,23.4
2019-04-01T16:39:16.000Z,23.2
2019-04-01T16:40:10.000Z,23.2
2019-04-01T16:40:39.000Z,23.2
2019-04-01T16:41:08.000Z,23.2
2019-04-01T16:41:38.000Z,23.3
2019-04-01T16:42:11.000Z,23.3
2019-04-01T16:42:40.000Z,23.4
2019-04-01T16:43:08.000Z,23.6
2019-04-01T16:43:38.000Z,23.8
2019-04-01T16:44:07.000Z,24.1
2019-04-01T16:44:36.000Z,24.4
2019-04-01T16:45:04.000Z,24.6
2019-04-01T16:45:34.000Z,24.8
2019-04-01T16:46:04.000Z,25.0
2019-04-01T16:46:32.000Z,25.2
2019-04-01T16:47:02.000Z,25.4
2019-04-01T16:47:32.000Z,25.6
2019-04-01T16:48:00.000Z,25.8
2019-04-01T16:48:30.000Z,25.9
2019-04-01T16:48:59.000Z,26.1
2019-04-01T16:49:28.000Z,26.2
2019-04-01T16:49:56.000Z,26.4
2019-04-01T16:50:26.000Z,26.5
2019-04-01T16:50:55.000Z,26.6
2019-04-01T16:51:24.000Z,26.7
2019-04-01T16:51:52.000Z,26.8
2019-04-01T16:52:20.000Z,26.9
2019-04-01T16:52:50.000Z,27.0
2019-04-01T16:54:04.000Z,27.3
2019-04-01T16:54:59.000Z,27.4
2019-04-01T16:55:28.000Z,27.5
2019-04-01T16:55:56.000Z,27.6
2019-04-01T16:56:26.000Z,27.7
2019-04-01T16:56:58.000Z,27.8
2019-04-01T16:57:27.000Z,27.8
2019-04-01T16:57:55.000Z,27.9
2019-04-01T16:58:24.000Z,28.0
2019-04-01T16:58:52.000Z,28.0
2019-04-01T16:59:20.000Z,28.1
2019-04-01T16:59:48.000Z,28.2
2019-04-01T17:00:18.000Z,28.2
2019-04-01T17:00:47.000Z,28.3
2019-04-01T17:01:15.000Z,28.3
2019-04-01T17:01:44.000Z,28.4
2019-04-01T17:02:12.000Z,28.5
2019-04-01T17:02:42.000Z,28.5
2019-04-01T17:03:11.000Z,28.6
2019-04-01T17:03:40.000Z,28.7
2019-04-01T17:04:08.000Z,28.7
2019-04-01T17:04:38.000Z,28.8
2019-04-01T17:05:10.000Z,28.9
2019-04-01T17:05:39.000Z,28.9
2019-04-01T17:06:08.000Z,29.0
2019-04-01T17:06:36.000Z,29.0
2019-04-01T17:07:04.000Z,29.0
2019-04-01T17:07:32.000Z,29.1
2019-04-01T17:08:02.000Z,29.1
2019-04-01T17:08:31.000Z,29.2
2019-04-01T17:09:00.000Z,29.2
2019-04-01T17:09:28.000Z,29.3
2019-04-01T17:09:56.000Z,29.3
2019-04-01T17:10:24.000Z,29.3
2019-04-01T17:10:54.000Z,29.4
2019-04-01T17:11:23.000Z,29.4
2019-04-01T17:11:51.000Z,29.5
2019-04-01T17:12:20.000Z,29.5
2019-04-01T17:13:19.000Z,29.6
2019-04-01T17:13:48.000Z,29.6
2019-04-01T17:14:16.000Z,29.6
2019-04-01T17:14:44.000Z,29.7
2019-04-01T17:15:12.000Z,29.7
2019-04-01T17:20:04.000Z,30.1
2019-04-01T17:20:56.000Z,30.1
2019-04-01T17:21:26.000Z,30.1
2019-04-01T17:21:55.000Z,30.2
2019-04-01T17:22:24.000Z,30.2
2019-04-01T17:22:52.000Z,30.3
2019-04-01T17:23:22.000Z,30.3
2019-04-01T17:23:51.000Z,30.4
2019-04-01T17:24:20.000Z,30.4
2019-04-01T17:24:48.000Z,30.5
2019-04-01T17:25:18.000Z,30.5
2019-04-01T17:25:47.000Z,30.6
2019-04-01T17:26:15.000Z,30.6
2019-04-01T17:26:43.000Z,30.7
2019-04-01T17:28:56.000Z,30.9
2019-04-01T17:33:16.000Z,31.1
2019-04-01T17:34:08.000Z,31.2
2019-04-01T17:34:36.000Z,31.2
2019-04-01T17:35:04.000Z,31.2
2019-04-01T17:35:34.000Z,31.3
2019-04-01T17:36:03.000Z,31.3
2019-04-01T17:36:32.000Z,31.4
2019-04-01T17:37:00.000Z,31.4
2019-04-01T17:37:30.000Z,31.5
2019-04-01T17:37:59.000Z,31.5
2019-04-01T17:38:28.000Z,31.5
2019-04-01T17:38:56.000Z,31.6
2019-04-01T17:39:26.000Z,31.6
2019-04-01T17:41:08.000Z,31.7
2019-04-01T17:42:08.000Z,31.8
2019-04-01T17:42:38.000Z,31.8
2019-04-01T17:43:08.000Z,31.8
2019-04-01T17:43:36.000Z,31.8
2019-04-01T17:44:06.000Z,31.8
2019-04-01T17:44:34.000Z,31.9
2019-04-01T17:45:03.000Z,31.9
2019-04-01T17:45:32.000Z,31.9
2019-04-01T17:46:00.000Z,32.0
2019-04-01T17:46:28.000Z,32.0
2019-04-01T17:46:58.000Z,32.0
2019-04-01T17:47:27.000Z,32.0
2019-04-01T17:47:56.000Z,32.1
2019-04-01T17:48:24.000Z,32.1
2019-04-01T17:48:54.000Z,32.1
2019-04-01T17:49:23.000Z,32.1
2019-04-01T17:49:52.000Z,32.2
2019-04-01T17:50:20.000Z,32.2
2019-04-01T17:50:50.000Z,32.2
2019-04-01T17:51:18.000Z,32.3
2019-04-01T17:51:46.000Z,32.3
2019-04-01T17:52:16.000Z,32.3
2019-04-01T17:52:46.000Z,32.3
2019-04-01T17:53:14.000Z,32.4
2019-04-01T17:53:43.000Z,32.4
2019-04-01T17:54:11.000Z,32.4
2019-04-01T17:54:40.000Z,32.5
2019-04-01T17:55:08.000Z,32.5
2019-04-01T17:55:38.000Z,32.5
2019-04-01T17:56:10.000Z,32.6
2019-04-01T17:56:39.000Z,32.6
2019-04-01T17:57:08.000Z,32.6
2019-04-01T17:57:36.000Z,32.7
2019-04-01T17:58:07.000Z,32.7
2019-04-01T17:58:36.000Z,32.7
2019-04-01T17:59:04.000Z,32.7
2019-04-01T17:59:36.000Z,32.8
2019-04-01T18:00:04.000Z,32.8
2019-04-01T18:00:34.000Z,32.8
2019-04-01T18:01:02.000Z,32.9
2019-04-01T18:01:31.000Z,32.9
2019-04-01T18:01:59.000Z,32.9
2019-04-01T18:02:28.000Z,32.9
2019-04-01T18:02:56.000Z,32.9
2019-04-01T18:03:26.000Z,33.0
2019-04-01T18:03:54.000Z,33.0
2019-04-01T18:04:23.000Z,33.0
2019-04-01T18:06:07.000Z,33.1
2019-04-01T18:06:59.000Z,33.2
2019-04-01T18:07:28.000Z,33.2
2019-04-01T18:07:56.000Z,33.3
2019-04-01T18:08:26.000Z,33.3
2019-04-01T18:08:55.000Z,33.3
2019-04-01T18:09:23.000Z,33.3
2019-04-01T18:09:52.000Z,33.3
2019-04-01T18:10:20.000Z,33.4
2019-04-01T18:10:48.000Z,33.4
2019-04-01T18:11:18.000Z,33.4
2019-04-01T18:11:47.000Z,33.5
2019-04-01T18:12:16.000Z,33.5
2019-04-01T18:12:44.000Z,33.5
2019-04-01T18:13:14.000Z,33.6
2019-04-01T18:13:43.000Z,33.6
2019-04-01T18:14:11.000Z,33.6
2019-04-01T18:14:40.000Z,33.7
2019-04-01T18:15:08.000Z,33.7
2019-04-01T18:15:36.000Z,33.7
2019-04-01T18:16:06.000Z,33.8
2019-04-01T18:16:35.000Z,33.8
2019-04-01T18:17:04.000Z,33.8
2019-04-01T18:17:32.000Z,33.8
2019-04-01T18:18:02.000Z,33.9
2019-04-01T18:18:31.000Z,33.9
2019-04-01T18:18:59.000Z,33.9
2019-04-01T18:19:28.000Z,33.9
2019-04-01T18:19:56.000Z,33.9
2019-04-01T18:20:26.000Z,34.0
2019-04-01T18:20:55.000Z,34.0
2019-04-01T18:21:24.000Z,34.0
2019-04-01T18:21:52.000Z,34.0
2019-04-01T18:22:20.000Z,34.0
2019-04-01T18:22:48.000Z,34.0
2019-04-01T18:23:18.000Z,34.1
2019-04-01T18:23:47.000Z,34.1
2019-04-01T18:24:15.000Z,34.1
2019-04-01T18:24:44.000Z,34.2
2019-04-01T18:25:12.000Z,34.2
2019-04-01T18:25:42.000Z,34.2
2019-04-01T18:26:10.000Z,34.2
2019-04-01T18:26:38.000Z,34.3
2019-04-01T18:27:07.000Z,34.3
2019-04-01T18:27:36.000Z,34.3
2019-04-01T18:28:04.000Z,34.3
2019-04-01T18:28:32.000Z,34.4
2019-04-01T18:29:02.000Z,34.4
2019-04-01T18:29:30.000Z,34.4
2019-04-01T18:29:58.000Z,34.4
2019-04-01T18:30:27.000Z,34.4
2019-04-01T18:30:56.000Z,34.5
2019-04-01T18:31:24.000Z,34.5
2019-04-01T18:31:54.000Z,34.5
2019-04-01T18:32:23.000Z,34.5
2019-04-01T18:32:52.000Z,34.6
2019-04-01T18:33:22.000Z,34.6
2019-04-01T18:33:51.000Z,34.6
2019-04-01T18:34:20.000Z,34.6
2019-04-01T18:34:48.000Z,34.6
2019-04-01T18:35:16.000Z,34.7
2019-04-01T18:35:46.000Z,34.7
2019-04-01T18:36:15.000Z,34.7
2019-04-01T18:36:44.000Z,34.7
2019-04-01T18:37:12.000Z,34.7
2019-04-01T18:37:40.000Z,34.7
2019-04-01T18:38:08.000Z,34.8
2019-04-01T18:38:38.000Z,34.8
2019-04-01T18:39:07.000Z,34.8
2019-04-01T18:39:36.000Z,34.8
2019-04-01T18:40:12.000Z,34.8
2019-04-01T18:40:56.000Z,34.9
2019-04-01T18:41:26.000Z,34.9
2019-04-01T18:41:55.000Z,34.9
2019-04-01T18:42:23.000Z,35.0
2019-04-01T18:42:52.000Z,35.0
2019-04-01T18:43:20.000Z,35.0
2019-04-01T18:43:48.000Z,35.0
2019-04-01T18:44:16.000Z,35.0
2019-04-01T18:44:46.000Z,35.1
2019-04-01T18:45:14.000Z,35.1
2019-04-01T18:45:43.000Z,35.1
2019-04-01T18:46:12.000Z,35.1
2019-04-01T18:46:44.000Z,35.1
2019-04-01T18:47:12.000Z,35.2
2019-04-01T18:47:42.000Z,35.2
2019-04-01T18:48:11.000Z,35.2
2019-04-01T18:48:40.000Z,35.2
2019-04-01T18:49:08.000Z,35.2
2019-04-01T18:49:38.000Z,35.3
2019-04-01T18:50:06.000Z,35.3
2019-04-01T18:50:35.000Z,35.3
2019-04-01T18:51:04.000Z,35.3
2019-04-01T18:51:32.000Z,35.3
2019-04-01T18:52:00.000Z,35.3
2019-04-01T18:52:30.000Z,35.4
2019-04-01T18:52:59.000Z,35.4
2019-04-01T18:53:28.000Z,35.4
2019-04-01T18:53:56.000Z,35.4
2019-04-01T18:54:26.000Z,35.4
2019-04-01T18:54:54.000Z,35.5
2019-04-01T18:55:23.000Z,35.5
2019-04-01T18:55:52.000Z,35.5
2019-04-01T18:56:20.000Z,35.6
2019-04-01T18:56:50.000Z,35.6
2019-04-01T18:57:19.000Z,35.6
2019-04-01T18:57:48.000Z,35.6
2019-04-01T18:58:16.000Z,35.7
2019-04-01T18:58:46.000Z,35.7
2019-04-01T18:59:14.000Z,35.7
2019-04-01T18:59:42.000Z,35.7
2019-04-01T19:00:10.000Z,35.7
2019-04-01T19:00:39.000Z,35.8
2019-04-01T19:01:08.000Z,35.8
2019-04-01T19:01:36.000Z,35.8
2019-04-01T19:02:04.000Z,35.8
2019-04-01T19:02:34.000Z,35.8
2019-04-01T19:03:02.000Z,35.8
2019-04-01T19:03:31.000Z,35.9
2019-04-01T19:04:04.000Z,35.9
2019-04-01T19:04:32.000Z,35.9
2019-04-01T19:05:02.000Z,36.0
2019-04-01T19:05:31.000Z,36.0
2019-04-01T19:05:59.000Z,36.0
2019-04-01T19:06:28.000Z,36.0
2019-04-01T19:06:56.000Z,36.0